createdAt,value
2023-02-13T00:01:15.041Z,-0.99
2023-02-13T00:03:43.303Z,-1.00
2023-02-13T00:06:12.845Z,-0.98
2023-02-13T00:08:40.946Z,-0.96
2023-02-13T00:11:09.117Z,-0.99
2023-02-13T00:13:37.305Z,-0.95
2023-02-13T00:16:06.854Z,-0.87
2023-02-13T00:18:37.233Z,-0.93
2023-02-13T00:21:07.228Z,-0.99
2023-02-13T00:23:37.827Z,-1.01
2023-02-13T00:26:09.089Z,-1.03
2023-02-13T00:28:37.583Z,-1.05
2023-02-13T00:31:07.484Z,-1.08
2023-02-13T00:33:37.327Z,-1.08
2023-02-13T00:36:08.066Z,-1.15
2023-02-13T00:38:38.012Z,-1.16
2023-02-13T00:41:06.736Z,-1.14
2023-02-13T00:43:35.375Z,-1.16
2023-02-13T00:46:03.658Z,-1.18
2023-02-13T00:48:35.087Z,-1.20
2023-02-13T00:51:04.052Z,-1.29
2023-02-13T00:53:32.549Z,-1.28
2023-02-13T00:56:02.473Z,-1.26
2023-02-13T00:58:30.767Z,-1.33
2023-02-13T01:00:59.267Z,-1.29
2023-02-13T01:03:28.143Z,-1.27
2023-02-13T01:05:58.289Z,-1.31
2023-02-13T01:08:28.456Z,-1.33
2023-02-13T01:10:57.478Z,-1.40
2023-02-13T01:13:27.823Z,-1.32
2023-02-13T01:15:56.009Z,-1.35
2023-02-13T01:18:24.472Z,-1.43
2023-02-13T01:21:01.149Z,-1.50
2023-02-13T01:23:32.575Z,-1.54
2023-02-13T01:26:01.330Z,-1.53
2023-02-13T01:28:30.836Z,-1.52
2023-02-13T01:31:00.200Z,-1.53
2023-02-13T01:33:30.541Z,-1.56
2023-02-13T01:36:00.373Z,-1.70
2023-02-13T01:38:28.544Z,-1.71
2023-02-13T01:40:56.913Z,-1.67
2023-02-13T01:43:26.099Z,-1.79
2023-02-13T01:45:58.797Z,-1.81
2023-02-13T01:48:30.395Z,-1.84
2023-02-13T01:51:04.128Z,-1.85
2023-02-13T01:53:37.179Z,-1.89
2023-02-13T01:56:12.056Z,-1.87
2023-02-13T01:58:43.875Z,-1.95
2023-02-13T02:01:13.622Z,-1.95
2023-02-13T02:03:46.734Z,-2.00
2023-02-13T02:06:21.710Z,-2.00
2023-02-13T02:08:51.160Z,-2.08
2023-02-13T02:11:27.102Z,-2.18
2023-02-13T02:13:56.151Z,-2.24
2023-02-13T02:16:27.432Z,-2.21
2023-02-13T02:18:56.510Z,-2.23
2023-02-13T02:22:00.734Z,-2.22
2023-02-13T02:25:01.388Z,-2.19
2023-02-13T02:28:07.417Z,-2.25
2023-02-13T02:30:59.244Z,-2.16
2023-02-13T02:33:39.547Z,-2.24
2023-02-13T02:36:23.735Z,-2.23
2023-02-13T02:39:08.473Z,-2.16
2023-02-13T02:41:46.906Z,-2.19
2023-02-13T02:44:33.863Z,-2.25
2023-02-13T02:47:41.984Z,-2.27
2023-02-13T02:50:24.724Z,-2.18
2023-02-13T02:53:07.863Z,-2.20
2023-02-13T02:55:42.572Z,-2.21
2023-02-13T02:58:35.707Z,-2.22
2023-02-13T03:01:24.504Z,-2.20
2023-02-13T03:04:11.101Z,-2.17
2023-02-13T03:06:45.943Z,-2.20
2023-02-13T03:09:34.653Z,-2.21
2023-02-13T03:12:21.298Z,-2.18
2023-02-13T03:14:50.108Z,-2.14
2023-02-13T03:17:37.815Z,-2.19
2023-02-13T03:20:53.606Z,-2.28
2023-02-13T03:23:33.856Z,-2.37
2023-02-13T03:26:18.278Z,-2.46
2023-02-13T03:29:11.253Z,-2.49
2023-02-13T03:31:50.847Z,-2.50
2023-02-13T03:34:23.423Z,-2.46
2023-02-13T03:37:18.146Z,-2.49
2023-02-13T03:39:57.954Z,-2.48
2023-02-13T03:42:33.724Z,-2.43
2023-02-13T03:45:25.052Z,-2.36
2023-02-13T03:47:57.982Z,-2.36
2023-02-13T03:50:27.276Z,-2.35
2023-02-13T03:53:00.666Z,-2.30
2023-02-13T03:55:55.319Z,-2.35
2023-02-13T03:58:43.978Z,-2.30
2023-02-13T04:01:16.818Z,-2.26
2023-02-13T04:03:53.143Z,-2.26
2023-02-13T04:06:23.394Z,-2.29
2023-02-13T04:08:52.733Z,-2.42
2023-02-13T04:11:29.558Z,-2.40
2023-02-13T04:14:00.268Z,-2.39
2023-02-13T04:16:33.494Z,-2.42
2023-02-13T04:19:03.010Z,-2.47
2023-02-13T04:21:35.696Z,-2.52
2023-02-13T04:24:03.791Z,-2.57
2023-02-13T04:26:37.674Z,-2.52
2023-02-13T04:29:06.151Z,-2.49
2023-02-13T04:31:34.664Z,-2.52
2023-02-13T04:34:02.895Z,-2.52
2023-02-13T04:36:31.466Z,-2.51
2023-02-13T04:38:59.640Z,-2.44
2023-02-13T04:41:27.789Z,-2.47
2023-02-13T04:43:57.403Z,-2.47
2023-02-13T04:46:25.730Z,-2.51
2023-02-13T04:48:53.901Z,-2.45
2023-02-13T04:51:22.506Z,-2.50
2023-02-13T04:53:50.644Z,-2.60
2023-02-13T04:56:19.979Z,-2.58
2023-02-13T04:58:48.255Z,-2.74
2023-02-13T05:01:19.379Z,-2.70
2023-02-13T05:03:47.619Z,-2.68
2023-02-13T05:06:15.791Z,-2.76
2023-02-13T05:08:44.316Z,-2.71
2023-02-13T05:11:12.654Z,-2.75
2023-02-13T05:13:40.735Z,-2.72
2023-02-13T05:16:09.062Z,-2.64
2023-02-13T05:18:38.723Z,-2.72
2023-02-13T05:21:26.784Z,-2.68
2023-02-13T05:23:54.958Z,-2.67
2023-02-13T05:26:23.083Z,-2.57
2023-02-13T05:29:08.533Z,-2.42
2023-02-13T05:31:36.839Z,-2.17
2023-02-13T05:34:06.817Z,-1.79
2023-02-13T05:36:34.897Z,-1.63
2023-02-13T05:39:04.401Z,-1.48
2023-02-13T05:41:32.477Z,-1.23
2023-02-13T05:44:00.626Z,-1.26
2023-02-13T05:46:28.950Z,-1.39
2023-02-13T05:48:57.234Z,-1.49
2023-02-13T05:51:26.997Z,-1.11
2023-02-13T05:53:55.083Z,-0.86
2023-02-13T05:56:23.362Z,-0.87
2023-02-13T05:58:53.592Z,-0.85
2023-02-13T06:01:22.209Z,-0.39
2023-02-13T06:03:50.424Z,-0.09
2023-02-13T06:06:19.039Z,0.31
2023-02-13T06:08:48.617Z,0.70
2023-02-13T06:11:16.779Z,0.65
2023-02-13T06:13:44.944Z,0.60
2023-02-13T06:16:13.852Z,0.52
2023-02-13T06:18:42.486Z,0.39
2023-02-13T06:21:10.818Z,0.29
2023-02-13T06:23:39.529Z,0.28
2023-02-13T06:26:10.492Z,0.11
2023-02-13T06:28:38.970Z,0.01
2023-02-13T06:31:07.289Z,0.03
2023-02-13T06:33:35.611Z,-0.04
2023-02-13T06:36:03.764Z,-0.01
2023-02-13T06:38:32.278Z,-0.03
2023-02-13T06:41:03.060Z,0.05
2023-02-13T06:43:32.686Z,0.06
2023-02-13T06:46:00.999Z,0.24
2023-02-13T06:48:29.075Z,0.20
2023-02-13T06:50:57.581Z,0.22
2023-02-13T06:53:25.997Z,0.21
2023-02-13T06:55:54.438Z,0.33
2023-02-13T06:58:23.619Z,0.39
2023-02-13T07:00:54.294Z,0.41
2023-02-13T07:03:22.645Z,0.44
2023-02-13T07:05:52.149Z,0.47
2023-02-13T07:08:20.801Z,0.56
2023-02-13T07:10:49.209Z,0.62
2023-02-13T07:13:17.314Z,0.81
2023-02-13T07:15:45.934Z,1.12
2023-02-13T07:18:15.560Z,1.40
2023-02-13T07:20:43.695Z,1.39
2023-02-13T07:23:12.089Z,1.56
2023-02-13T07:25:40.272Z,1.77
2023-02-13T07:28:08.409Z,1.95
2023-02-13T07:30:36.715Z,2.34
2023-02-13T07:33:06.661Z,2.13
2023-02-13T07:35:37.784Z,2.13
2023-02-13T07:38:06.563Z,2.48
2023-02-13T07:40:34.694Z,2.63
2023-02-13T07:43:03.180Z,2.79
2023-02-13T07:45:32.157Z,2.78
2023-02-13T07:48:00.965Z,3.10
2023-02-13T07:50:29.575Z,3.48
2023-02-13T07:53:00.581Z,3.36
2023-02-13T07:55:28.907Z,3.45
2023-02-13T07:57:57.376Z,3.84
2023-02-13T08:00:25.582Z,4.01
2023-02-13T08:02:53.874Z,4.14
2023-02-13T08:05:22.014Z,4.20
2023-02-13T08:07:50.154Z,4.37
2023-02-13T08:10:37.676Z,3.97
2023-02-13T08:13:06.790Z,4.32
2023-02-13T08:15:34.937Z,4.23
2023-02-13T08:18:03.263Z,4.13
2023-02-13T08:20:31.442Z,4.28
2023-02-13T08:23:04.472Z,4.55
2023-02-13T08:25:34.451Z,4.56
2023-02-13T08:28:03.181Z,4.59
2023-02-13T08:30:31.379Z,4.81
2023-02-13T08:32:59.552Z,4.74
2023-02-13T08:35:29.867Z,4.48
2023-02-13T08:37:58.302Z,3.74
2023-02-13T08:40:26.899Z,3.92
2023-02-13T08:43:01.225Z,3.82
2023-02-13T08:45:29.991Z,3.88
2023-02-13T08:47:59.341Z,4.03
2023-02-13T08:50:28.730Z,4.24
2023-02-13T08:52:56.915Z,4.50
2023-02-13T08:55:25.000Z,4.38
2023-02-13T08:57:53.110Z,4.40
2023-02-13T09:00:23.257Z,4.37
2023-02-13T09:02:51.425Z,4.41
2023-02-13T09:05:20.939Z,4.03
2023-02-13T09:07:49.110Z,4.07
2023-02-13T09:10:17.334Z,3.73
2023-02-13T09:12:46.509Z,3.88
2023-02-13T09:15:14.550Z,3.93
2023-02-13T09:17:44.036Z,4.00
2023-02-13T09:20:14.084Z,3.98
2023-02-13T09:22:42.296Z,3.86
2023-02-13T09:25:11.010Z,3.68
2023-02-13T09:27:39.436Z,3.59
2023-02-13T09:30:09.191Z,3.49
2023-02-13T09:32:37.672Z,3.43
2023-02-13T09:35:07.682Z,3.46
2023-02-13T09:37:35.833Z,3.40
2023-02-13T09:40:04.347Z,3.50
2023-02-13T09:42:38.476Z,3.86
2023-02-13T09:45:09.460Z,3.97
2023-02-13T09:47:40.929Z,4.15
2023-02-13T09:50:15.880Z,3.98
2023-02-13T09:52:46.930Z,3.93
2023-02-13T09:55:17.882Z,4.05
2023-02-13T09:57:50.421Z,3.95
2023-02-13T10:00:24.023Z,3.94
2023-02-13T10:03:17.560Z,3.76
2023-02-13T10:05:57.960Z,3.60
2023-02-13T10:08:37.478Z,3.57
2023-02-13T10:11:18.602Z,3.51
2023-02-13T10:13:58.437Z,3.57
2023-02-13T10:16:30.410Z,3.48
2023-02-13T10:19:06.793Z,3.45
2023-02-13T10:21:42.844Z,3.48
2023-02-13T10:24:15.565Z,3.64
2023-02-13T10:26:47.485Z,3.70
2023-02-13T10:29:41.028Z,3.63
2023-02-13T10:32:14.308Z,3.65
2023-02-13T10:34:46.259Z,3.73
2023-02-13T10:37:18.176Z,3.68
2023-02-13T10:39:48.976Z,3.79
2023-02-13T10:42:24.061Z,3.95
2023-02-13T10:45:01.855Z,3.99
2023-02-13T10:47:47.983Z,4.04
2023-02-13T10:50:27.795Z,4.10
2023-02-13T10:53:13.112Z,4.07
2023-02-13T10:56:05.912Z,4.08
2023-02-13T10:58:48.507Z,4.30
2023-02-13T11:01:23.547Z,4.31
2023-02-13T11:04:05.096Z,4.57
2023-02-13T11:06:35.936Z,4.67
2023-02-13T11:09:08.609Z,4.79
2023-02-13T11:11:38.451Z,4.86
2023-02-13T11:14:12.221Z,4.91
2023-02-13T11:16:44.317Z,4.94
2023-02-13T11:19:25.612Z,4.76
2023-02-13T11:22:00.555Z,4.14
2023-02-13T11:24:31.650Z,3.70
2023-02-13T11:27:02.801Z,3.61
2023-02-13T11:29:32.912Z,3.65
2023-02-13T11:32:12.754Z,3.69
2023-02-13T11:34:41.088Z,3.75
2023-02-13T11:37:18.681Z,3.76
2023-02-13T11:39:51.451Z,3.86
2023-02-13T11:42:26.098Z,3.61
2023-02-13T11:44:56.979Z,3.66
2023-02-13T11:47:34.430Z,3.75
2023-02-13T11:50:02.748Z,3.63
2023-02-13T11:52:34.103Z,3.41
2023-02-13T11:55:05.754Z,3.45
2023-02-13T11:57:35.808Z,3.30
2023-02-13T12:00:31.123Z,3.39
2023-02-13T12:02:59.447Z,3.40
2023-02-13T12:05:29.418Z,3.42
2023-02-13T12:08:01.668Z,3.43
2023-02-13T12:10:33.653Z,3.43
2023-02-13T12:13:13.822Z,3.52
2023-02-13T12:15:42.854Z,3.49
2023-02-13T12:18:21.023Z,3.47
2023-02-13T12:20:59.079Z,3.34
2023-02-13T12:23:40.561Z,3.30
2023-02-13T12:26:25.141Z,3.51
2023-02-13T12:29:34.246Z,3.62
2023-02-13T12:32:12.198Z,3.68
2023-02-13T12:35:09.270Z,3.60
2023-02-13T12:38:01.977Z,3.67
2023-02-13T12:40:48.283Z,3.56
2023-02-13T12:43:57.627Z,3.40
2023-02-13T12:46:33.893Z,3.36
2023-02-13T12:49:14.828Z,3.29
2023-02-13T12:51:51.776Z,3.32
2023-02-13T12:54:34.531Z,3.22
2023-02-13T12:57:31.029Z,3.12
2023-02-13T13:00:16.993Z,3.13
2023-02-13T13:02:57.482Z,3.14
2023-02-13T13:05:32.957Z,3.14
2023-02-13T13:08:22.768Z,3.15
2023-02-13T13:11:05.441Z,3.14
2023-02-13T13:13:47.190Z,3.21
2023-02-13T13:16:21.526Z,3.24
2023-02-13T13:19:03.993Z,3.24
2023-02-13T13:21:40.896Z,3.16
2023-02-13T13:24:27.475Z,3.09
2023-02-13T13:26:57.779Z,3.20
2023-02-13T13:29:30.904Z,3.14
2023-02-13T13:32:03.178Z,3.15
2023-02-13T13:34:35.841Z,3.22
2023-02-13T13:37:10.668Z,3.39
2023-02-13T13:39:50.245Z,3.36
2023-02-13T13:42:22.409Z,3.35
2023-02-13T13:45:19.091Z,3.43
2023-02-13T13:47:59.911Z,3.37
2023-02-13T13:50:32.824Z,3.28
2023-02-13T13:53:11.885Z,3.10
2023-02-13T13:56:02.826Z,3.10
2023-02-13T13:58:36.763Z,3.19
2023-02-13T14:01:26.389Z,3.31
2023-02-13T14:03:56.246Z,3.30
2023-02-13T14:06:27.819Z,3.32
2023-02-13T14:09:02.418Z,3.28
2023-02-13T14:11:37.437Z,3.31
2023-02-13T14:14:45.514Z,3.34
2023-02-13T14:17:17.404Z,3.41
2023-02-13T14:19:51.228Z,3.43
2023-02-13T14:22:37.860Z,3.34
2023-02-13T14:25:07.869Z,3.35
2023-02-13T14:27:39.098Z,3.28
2023-02-13T14:30:28.032Z,3.22
2023-02-13T14:32:56.897Z,3.12
2023-02-13T14:35:27.688Z,3.08
2023-02-13T14:37:59.376Z,2.97
2023-02-13T14:40:47.331Z,2.88
2023-02-13T14:43:30.910Z,2.78
2023-02-13T14:46:08.162Z,2.76
2023-02-13T14:48:44.936Z,2.77
2023-02-13T14:51:28.769Z,2.71
2023-02-13T14:54:04.947Z,2.70
2023-02-13T14:56:33.909Z,2.63
2023-02-13T14:59:12.525Z,2.56
2023-02-13T15:01:51.201Z,2.36
2023-02-13T15:04:27.344Z,2.21
2023-02-13T15:06:57.041Z,2.02
2023-02-13T15:09:34.026Z,1.78
2023-02-13T15:12:02.466Z,1.76
2023-02-13T15:14:35.185Z,1.61
2023-02-13T15:17:07.931Z,1.31
2023-02-13T15:19:39.171Z,1.30
2023-02-13T15:22:08.499Z,1.26
2023-02-13T15:24:47.296Z,1.29
2023-02-13T15:27:21.194Z,1.23
2023-02-13T15:29:57.349Z,1.05
2023-02-13T15:32:41.810Z,0.92
2023-02-13T15:35:24.402Z,0.81
2023-02-13T15:37:52.552Z,0.81
2023-02-13T15:40:31.127Z,0.79
2023-02-13T15:43:00.812Z,0.67
2023-02-13T15:45:30.784Z,0.58
2023-02-13T15:47:59.189Z,0.54
2023-02-13T15:50:32.384Z,0.41
2023-02-13T15:53:03.110Z,0.39
2023-02-13T15:55:36.621Z,0.29
2023-02-13T15:58:05.400Z,0.21
2023-02-13T16:00:36.561Z,0.13
2023-02-13T16:03:07.427Z,0.11
2023-02-13T16:05:41.403Z,0.11
2023-02-13T16:08:31.370Z,-0.04
2023-02-13T16:11:35.168Z,-0.12
2023-02-13T16:14:09.353Z,-0.09
2023-02-13T16:16:46.380Z,-0.20
2023-02-13T16:19:29.857Z,-0.12
2023-02-13T16:22:01.398Z,-0.11
2023-02-13T16:24:30.565Z,-0.08
2023-02-13T16:26:58.891Z,0.04
2023-02-13T16:29:28.856Z,-0.03
2023-02-13T16:32:07.208Z,-0.16
2023-02-13T16:34:35.421Z,-0.22
2023-02-13T16:37:03.561Z,-0.24
2023-02-13T16:39:34.209Z,-0.32
2023-02-13T16:42:02.728Z,-0.25
2023-02-13T16:44:33.475Z,-0.05
2023-02-13T16:47:02.758Z,-0.22
2023-02-13T16:49:33.674Z,-0.35
2023-02-13T16:52:12.439Z,-0.56
2023-02-13T16:54:50.104Z,-0.42
2023-02-13T16:57:26.239Z,-0.29
2023-02-13T17:00:08.952Z,-0.39
2023-02-13T17:02:38.252Z,-0.17
2023-02-13T17:05:22.571Z,-0.02
2023-02-13T17:07:53.177Z,0.04
2023-02-13T17:10:24.527Z,0.11
2023-02-13T17:12:53.225Z,0.15
2023-02-13T17:15:24.485Z,0.08
2023-02-13T17:17:53.732Z,0.03
2023-02-13T17:20:23.641Z,-0.03
2023-02-13T17:22:53.638Z,-0.03
2023-02-13T17:25:24.086Z,0.00
2023-02-13T17:27:54.757Z,0.11
2023-02-13T17:30:26.265Z,-0.04
2023-02-13T17:32:59.711Z,-0.02
2023-02-13T17:35:27.946Z,-0.13
2023-02-13T17:37:56.156Z,-0.26
2023-02-13T17:40:28.600Z,-0.20
2023-02-13T17:42:58.099Z,-0.22
2023-02-13T17:45:29.987Z,-0.34
2023-02-13T17:47:58.850Z,-0.41
2023-02-13T17:50:27.677Z,-0.51
2023-02-13T17:52:56.551Z,-0.57
2023-02-13T17:55:26.966Z,-0.52
2023-02-13T17:57:57.708Z,-0.62
2023-02-13T18:00:29.651Z,-0.75
2023-02-13T18:02:59.437Z,-0.64
2023-02-13T18:05:28.910Z,-0.93
2023-02-13T18:07:57.211Z,-1.04
2023-02-13T18:10:27.660Z,-0.90
2023-02-13T18:12:58.433Z,-0.80
2023-02-13T18:15:29.877Z,-0.63
2023-02-13T18:17:59.021Z,-0.77
2023-02-13T18:20:27.240Z,-0.73
2023-02-13T18:22:55.465Z,-0.60
2023-02-13T18:25:23.764Z,-0.37
2023-02-13T18:27:52.091Z,-0.20
2023-02-13T18:30:21.564Z,0.00
2023-02-13T18:32:55.005Z,0.03
2023-02-13T18:35:24.363Z,0.17
2023-02-13T18:37:52.704Z,0.16
2023-02-13T18:40:21.019Z,0.10
2023-02-13T18:42:51.147Z,0.09
2023-02-13T18:45:19.464Z,-0.08
2023-02-13T18:47:47.635Z,-0.39
2023-02-13T18:50:17.300Z,-0.70
2023-02-13T18:52:46.767Z,-0.94
2023-02-13T18:55:14.851Z,-1.01
2023-02-13T18:57:45.543Z,-1.20
2023-02-13T19:00:16.646Z,-1.38
2023-02-13T19:02:44.815Z,-1.50
2023-02-13T19:05:13.245Z,-1.49
2023-02-13T19:07:42.779Z,-1.44
2023-02-13T19:10:11.578Z,-1.22
2023-02-13T19:12:39.915Z,-1.03
2023-02-13T19:15:08.851Z,-1.07
2023-02-13T19:17:38.538Z,-1.15
2023-02-13T19:20:08.411Z,-1.12
2023-02-13T19:22:36.833Z,-1.15
2023-02-13T19:25:07.069Z,-1.26
2023-02-13T19:27:37.848Z,-1.31
2023-02-13T19:30:09.777Z,-1.32
2023-02-13T19:32:37.927Z,-1.45
2023-02-13T19:35:06.798Z,-1.52
2023-02-13T19:37:43.420Z,-1.35
2023-02-13T19:40:15.104Z,-1.35
2023-02-13T19:42:43.287Z,-1.25
2023-02-13T19:45:12.216Z,-1.27
2023-02-13T19:47:40.482Z,-1.32
2023-02-13T19:50:09.977Z,-1.31
2023-02-13T19:52:38.175Z,-1.23
2023-02-13T19:55:06.744Z,-1.07
2023-02-13T19:57:36.398Z,-0.98
2023-02-13T20:00:05.094Z,-1.00
2023-02-13T20:02:33.177Z,-1.09
2023-02-13T20:05:01.402Z,-1.12
2023-02-13T20:07:29.592Z,-1.16
2023-02-13T20:09:57.756Z,-1.17
2023-02-13T20:12:25.912Z,-1.29
2023-02-13T20:14:57.066Z,-1.37
2023-02-13T20:17:25.482Z,-1.36
2023-02-13T20:19:54.458Z,-1.30
2023-02-13T20:22:22.799Z,-1.34
2023-02-13T20:24:51.089Z,-1.30
2023-02-13T20:27:19.297Z,-1.31
2023-02-13T20:29:47.614Z,-1.28
2023-02-13T20:32:17.285Z,-1.16
2023-02-13T20:34:58.990Z,-1.02
2023-02-13T20:37:28.687Z,-1.01
2023-02-13T20:39:56.812Z,-1.05
2023-02-13T20:42:24.970Z,-1.09
2023-02-13T20:44:54.903Z,-1.11
2023-02-13T20:47:24.434Z,-1.16
2023-02-13T20:49:52.683Z,-1.19
2023-02-13T20:52:25.157Z,-1.21
2023-02-13T20:54:54.630Z,-1.35
2023-02-13T20:57:23.702Z,-1.39
2023-02-13T20:59:51.886Z,-1.33
2023-02-13T21:02:21.027Z,-1.45
2023-02-13T21:04:50.656Z,-1.58
2023-02-13T21:07:18.805Z,-1.75
2023-02-13T21:09:46.916Z,-1.86
2023-02-13T21:12:15.197Z,-1.86
2023-02-13T21:14:43.381Z,-1.87
2023-02-13T21:17:11.511Z,-1.94
2023-02-13T21:19:40.470Z,-1.88
2023-02-13T21:22:12.915Z,-1.76
2023-02-13T21:24:42.387Z,-1.73
2023-02-13T21:27:11.930Z,-1.79
2023-02-13T21:29:40.157Z,-1.70
2023-02-13T21:32:08.370Z,-1.71
2023-02-13T21:34:36.585Z,-1.59
2023-02-13T21:37:04.797Z,-1.67
2023-02-13T21:39:34.499Z,-1.94
2023-02-13T21:42:04.605Z,-2.05
2023-02-13T21:44:33.584Z,-2.25
2023-02-13T21:47:01.810Z,-1.99
2023-02-13T21:49:30.002Z,-2.33
2023-02-13T21:51:58.184Z,-2.05
2023-02-13T21:54:26.436Z,-2.22
2023-02-13T21:56:55.935Z,-2.14
2023-02-13T21:59:24.171Z,-1.98
2023-02-13T22:01:52.722Z,-1.80
2023-02-13T22:04:21.330Z,-1.59
2023-02-13T22:06:51.273Z,-1.53
2023-02-13T22:09:21.209Z,-1.57
2023-02-13T22:11:51.697Z,-1.55
2023-02-13T22:14:22.490Z,-1.57
2023-02-13T22:16:52.657Z,-1.57
2023-02-13T22:19:21.468Z,-1.58
2023-02-13T22:21:49.711Z,-1.68
2023-02-13T22:24:17.861Z,-1.80
2023-02-13T22:26:46.585Z,-1.86
2023-02-13T22:29:16.501Z,-1.92
2023-02-13T22:31:46.206Z,-1.91
2023-02-13T22:34:14.834Z,-2.00
2023-02-13T22:36:43.648Z,-1.99
2023-02-13T22:39:14.244Z,-1.93
2023-02-13T22:41:45.920Z,-1.90
2023-02-13T22:44:14.119Z,-1.79
2023-02-13T22:46:42.409Z,-1.68
2023-02-13T22:49:12.281Z,-1.39
2023-02-13T22:51:40.465Z,-1.34
2023-02-13T22:54:08.738Z,-1.24
2023-02-13T22:56:36.838Z,-1.17
2023-02-13T22:59:05.111Z,-1.25
2023-02-13T23:01:33.299Z,-1.32
2023-02-13T23:04:01.434Z,-1.39
2023-02-13T23:06:31.024Z,-1.49
2023-02-13T23:08:59.191Z,-1.51
2023-02-13T23:11:46.641Z,-1.59
2023-02-13T23:14:15.225Z,-1.58
2023-02-13T23:17:01.837Z,-1.64
2023-02-13T23:19:30.265Z,-1.67
2023-02-13T23:22:00.341Z,-1.73
2023-02-13T23:24:28.579Z,-1.73
2023-02-13T23:26:56.784Z,-1.69
2023-02-13T23:29:25.247Z,-1.68
2023-02-13T23:31:53.520Z,-1.62
2023-02-13T23:34:22.009Z,-1.53
2023-02-13T23:36:50.117Z,-1.42
2023-02-13T23:39:20.064Z,-1.44
2023-02-13T23:41:48.119Z,-1.48
2023-02-13T23:44:17.284Z,-1.43
2023-02-13T23:46:45.507Z,-1.26
2023-02-13T23:49:13.739Z,-1.21
2023-02-13T23:51:41.942Z,-1.36
2023-02-13T23:54:10.011Z,-1.57
2023-02-13T23:56:39.549Z,-1.49
2023-02-13T23:59:07.960Z,-1.49
